Time;durP1;ratioP1;P1;durP2;ratioP2;P2;SDS_P1;SDS_P2;PMS_P1;PMS_P2;Temp;Humidity;BMP_temperature;BMP_pressure;BME280_temperature;BME280_humidity;BME280_pressure;Samples;Min_cycle;Max_cycle;Signal;HPM_P1;HPM_P2
2023/08/05 00:00:54;;;;;;;5.20;5.10;;;16.30;99.90;;;;;;5099752;28;20461;-68
2023/08/05 00:03:22;;;;;;;5.00;5.00;;;16.30;99.90;;;;;;5096949;27;20457;-68
2023/08/05 00:05:49;;;;;;;4.80;4.80;;;16.30;99.90;;;;;;5097758;28;20553;-68
2023/08/05 00:08:16;;;;;;;5.33;5.23;;;16.30;99.90;;;;;;5095815;28;20975;-69
2023/08/05 00:10:44;;;;;;;5.30;5.20;;;16.30;99.90;;;;;;5091685;28;20454;-68
2023/08/05 00:13:11;;;;;;;4.90;4.90;;;16.30;99.90;;;;;;5102243;28;20499;-68
2023/08/05 00:15:38;;;;;;;5.00;5.00;;;16.30;99.90;;;;;;5099970;28;20484;-70
2023/08/05 00:18:07;;;;;;;5.00;5.00;;;16.40;99.90;;;;;;5090866;28;20851;-68
2023/08/05 00:20:37;;;;;;;5.40;5.30;;;16.30;99.90;;;;;;5089476;28;20466;-68
2023/08/05 00:23:04;;;;;;;5.03;5.03;;;16.30;99.90;;;;;;5096378;28;20476;-68
2023/08/05 00:25:31;;;;;;;5.20;5.10;;;16.30;99.90;;;;;;5101553;28;20597;-68
2023/08/05 00:27:58;;;;;;;5.13;5.10;;;16.30;99.90;;;;;;5089823;28;20461;-69
2023/08/05 00:30:25;;;;;;;5.10;5.10;;;16.30;99.90;;;;;;5103223;28;20752;-67
2023/08/05 00:32:51;;;;;;;5.30;5.20;;;16.30;99.90;;;;;;5101228;28;20465;-68
2023/08/05 00:35:18;;;;;;;4.50;4.50;;;16.30;99.90;;;;;;5089477;28;20473;-69
2023/08/05 00:37:48;;;;;;;5.30;5.20;;;16.20;99.90;;;;;;5090201;28;20856;-70
2023/08/05 00:40:14;;;;;;;4.50;4.50;;;16.00;99.90;;;;;;5102641;28;20510;-70
2023/08/05 00:42:43;;;;;;;5.10;5.07;;;15.90;99.90;;;;;;5094143;28;20464;-68
2023/08/05 00:45:10;;;;;;;5.20;5.13;;;15.90;99.90;;;;;;5103729;28;20929;-70
2023/08/05 00:47:38;;;;;;;4.67;4.67;;;15.90;99.90;;;;;;5094182;28;20611;-68
2023/08/05 00:50:06;;;;;;;5.03;4.97;;;15.90;99.90;;;;;;5091747;28;20525;-68
2023/08/05 00:52:33;;;;;;;3.90;3.90;;;15.80;99.90;;;;;;5089673;28;20461;-68
2023/08/05 00:55:01;;;;;;;3.90;3.90;;;15.70;99.90;;;;;;5103187;28;20486;-68
2023/08/05 00:57:29;;;;;;;3.83;3.83;;;15.60;99.90;;;;;;5093879;28;20462;-68
2023/08/05 00:59:57;;;;;;;3.83;3.83;;;15.60;99.90;;;;;;5090436;28;20459;-69
2023/08/05 01:02:24;;;;;;;3.90;3.90;;;15.50;99.90;;;;;;5097159;28;20473;-68
2023/08/05 01:04:52;;;;;;;3.40;3.40;;;15.60;99.90;;;;;;5098943;28;20465;-69
2023/08/05 01:07:21;;;;;;;3.63;3.63;;;15.60;99.90;;;;;;5103676;28;20534;-68
2023/08/05 01:09:48;;;;;;;3.40;3.40;;;15.60;99.90;;;;;;5099657;28;20465;-69
2023/08/05 01:12:17;;;;;;;3.50;3.50;;;15.60;99.90;;;;;;5097360;28;20487;-67
2023/08/05 01:14:44;;;;;;;3.60;3.60;;;15.50;99.90;;;;;;5093875;28;20482;-67
2023/08/05 01:17:12;;;;;;;3.20;3.20;;;15.50;99.90;;;;;;5108229;27;20570;-67
2023/08/05 01:19:40;;;;;;;3.40;3.40;;;15.50;99.90;;;;;;5093499;28;20458;-69
2023/08/05 01:22:14;;;;;;;3.20;3.20;;;15.50;99.90;;;;;;5106224;28;20449;-68
2023/08/05 01:24:49;;;;;;;3.20;3.20;;;15.50;99.90;;;;;;5094817;28;20473;-71
2023/08/05 01:27:17;;;;;;;3.33;3.33;;;15.50;99.90;;;;;;5098496;28;20830;-68
2023/08/05 01:29:44;;;;;;;3.40;3.40;;;15.50;99.90;;;;;;5103201;28;21334;-70
2023/08/05 01:32:13;;;;;;;3.53;3.53;;;15.40;99.90;;;;;;5101354;28;20461;-68
2023/08/05 01:34:40;;;;;;;3.53;3.53;;;15.50;99.90;;;;;;5110469;28;20529;-69
2023/08/05 01:37:07;;;;;;;3.43;3.43;;;15.40;99.90;;;;;;5101440;28;20467;-68
2023/08/05 01:39:35;;;;;;;3.50;3.50;;;15.40;99.90;;;;;;5108052;28;20820;-69
2023/08/05 01:42:03;;;;;;;3.63;3.63;;;15.30;99.90;;;;;;5101641;28;20457;-69
2023/08/05 01:44:31;;;;;;;3.93;3.93;;;15.20;99.90;;;;;;5096416;28;20468;-68
2023/08/05 01:47:00;;;;;;;3.47;3.47;;;15.20;99.90;;;;;;5097280;28;20460;-70
2023/08/05 01:49:27;;;;;;;4.00;4.00;;;15.10;99.90;;;;;;5100483;28;20805;-69
2023/08/05 01:51:53;;;;;;;3.57;3.57;;;15.00;99.90;;;;;;5102855;28;20935;-70
2023/08/05 01:54:20;;;;;;;3.43;3.43;;;14.90;99.90;;;;;;5107930;27;20529;-69
2023/08/05 01:56:47;;;;;;;3.40;3.40;;;14.80;99.90;;;;;;5096063;28;20512;-68
2023/08/05 01:59:15;;;;;;;3.60;3.60;;;14.70;99.90;;;;;;5101634;28;20460;-70
2023/08/05 02:01:44;;;;;;;3.73;3.73;;;14.50;99.90;;;;;;5094714;28;20964;-71
2023/08/05 02:04:11;;;;;;;3.90;3.90;;;14.50;99.90;;;;;;5096157;28;20473;-70
2023/08/05 02:06:39;;;;;;;3.60;3.60;;;14.40;99.90;;;;;;5104560;28;20677;-69
2023/08/05 02:09:06;;;;;;;4.00;4.00;;;14.30;99.90;;;;;;5104711;28;20467;-70
2023/08/05 02:11:34;;;;;;;4.00;4.00;;;14.30;99.90;;;;;;5099942;28;20470;-68
2023/08/05 02:14:02;;;;;;;3.90;3.90;;;14.30;99.90;;;;;;5095518;28;20525;-69
2023/08/05 02:16:31;;;;;;;3.23;3.23;;;14.30;99.90;;;;;;5106940;28;20489;-68
2023/08/05 02:18:59;;;;;;;3.03;3.03;;;14.40;99.90;;;;;;5096558;28;20828;-68
2023/08/05 02:21:26;;;;;;;2.77;2.77;;;14.40;99.90;;;;;;5097175;28;20464;-70
2023/08/05 02:23:53;;;;;;;2.17;2.17;;;14.40;99.90;;;;;;5101643;28;20448;-68
2023/08/05 02:26:21;;;;;;;2.33;2.33;;;14.30;99.90;;;;;;5096202;28;20610;-69
2023/08/05 02:28:50;;;;;;;2.50;2.50;;;14.20;99.90;;;;;;5104075;27;20545;-68
2023/08/05 02:31:17;;;;;;;2.60;2.60;;;14.20;99.90;;;;;;5097152;28;20462;-68
2023/08/05 02:33:45;;;;;;;2.50;2.50;;;14.10;99.90;;;;;;5100606;28;20461;-70
2023/08/05 02:36:13;;;;;;;2.33;2.33;;;14.10;99.90;;;;;;5098122;28;20533;-68
2023/08/05 02:38:40;;;;;;;2.53;2.53;;;14.20;99.90;;;;;;5100198;28;20472;-68
2023/08/05 02:41:08;;;;;;;2.70;2.70;;;14.20;99.90;;;;;;5091396;28;20785;-68
2023/08/05 02:43:35;;;;;;;2.70;2.70;;;14.20;99.90;;;;;;5100262;28;20457;-68
2023/08/05 02:46:01;;;;;;;2.70;2.70;;;14.20;99.90;;;;;;5100744;28;20480;-67
2023/08/05 02:48:29;;;;;;;2.60;2.60;;;14.30;99.90;;;;;;5101915;28;20449;-68
2023/08/05 02:50:57;;;;;;;2.70;2.70;;;14.30;99.90;;;;;;5101244;28;20812;-68
2023/08/05 02:53:25;;;;;;;2.43;2.43;;;14.40;99.90;;;;;;5104496;28;20517;-68
2023/08/05 02:55:52;;;;;;;2.10;2.10;;;14.40;99.90;;;;;;5098124;28;20755;-70
2023/08/05 02:58:20;;;;;;;1.67;1.67;;;14.40;99.90;;;;;;5093968;28;20838;-67
2023/08/05 03:00:47;;;;;;;2.00;2.00;;;14.30;99.90;;;;;;5094775;28;20481;-67
2023/08/05 03:03:17;;;;;;;1.90;1.90;;;14.40;99.90;;;;;;5102740;28;20455;-70
2023/08/05 03:05:45;;;;;;;1.60;1.60;;;14.40;99.90;;;;;;5099396;27;20473;-67
2023/08/05 03:08:12;;;;;;;1.90;1.90;;;14.40;99.90;;;;;;5091009;28;20469;-68
2023/08/05 03:10:42;;;;;;;1.97;1.97;;;14.40;99.90;;;;;;5091000;28;20573;-67
2023/08/05 03:13:09;;;;;;;2.03;2.03;;;14.50;99.90;;;;;;5101798;27;20458;-68
2023/08/05 03:15:35;;;;;;;2.00;2.00;;;14.40;99.90;;;;;;5093426;28;20526;-68
2023/08/05 03:18:02;;;;;;;1.70;1.70;;;14.40;99.90;;;;;;5105969;28;20468;-69
2023/08/05 03:20:30;;;;;;;1.60;1.60;;;14.30;99.90;;;;;;5099118;28;20468;-68
2023/08/05 03:22:58;;;;;;;1.80;1.80;;;14.30;99.90;;;;;;5097366;28;20553;-68
2023/08/05 03:25:27;;;;;;;2.00;2.00;;;14.30;99.90;;;;;;5103731;28;20476;-68
2023/08/05 03:27:55;;;;;;;2.10;2.10;;;14.20;99.90;;;;;;5089710;28;20557;-68
2023/08/05 03:30:24;;;;;;;1.93;1.93;;;14.20;99.90;;;;;;5088139;28;20694;-68
2023/08/05 03:32:51;;;;;;;1.50;1.50;;;14.20;99.90;;;;;;5100980;28;20756;-67
2023/08/05 03:35:18;;;;;;;1.80;1.80;;;14.10;99.90;;;;;;5096539;28;21034;-68
2023/08/05 03:37:46;;;;;;;1.50;1.50;;;14.00;99.90;;;;;;5100454;28;20459;-67
2023/08/05 03:40:13;;;;;;;1.93;1.93;;;14.00;99.90;;;;;;5105099;28;20449;-67
2023/08/05 03:42:40;;;;;;;2.07;2.07;;;13.90;99.90;;;;;;5100784;28;20531;-68
2023/08/05 03:45:10;;;;;;;2.20;2.20;;;13.80;99.90;;;;;;5092225;28;20560;-69
2023/08/05 03:47:36;;;;;;;2.20;2.20;;;13.70;99.90;;;;;;5090449;28;20944;-70
2023/08/05 03:50:05;;;;;;;2.60;2.60;;;13.70;99.90;;;;;;5102896;28;20510;-68
2023/08/05 03:52:32;;;;;;;2.70;2.70;;;13.70;99.90;;;;;;5101760;28;20468;-68
2023/08/05 03:55:01;;;;;;;2.67;2.67;;;13.70;99.90;;;;;;5093046;28;20464;-67
2023/08/05 03:57:27;;;;;;;2.90;2.90;;;13.70;99.90;;;;;;5096264;28;20611;-67
2023/08/05 03:59:54;;;;;;;2.97;2.97;;;13.70;99.90;;;;;;5098874;28;20889;-68
2023/08/05 04:02:23;;;;;;;2.93;2.93;;;13.70;99.90;;;;;;5097614;28;20457;-67
2023/08/05 04:04:50;;;;;;;2.77;2.77;;;13.60;99.90;;;;;;5091569;28;20468;-68
2023/08/05 04:07:19;;;;;;;3.23;3.23;;;13.50;99.90;;;;;;5094716;28;20474;-68
2023/08/05 04:09:46;;;;;;;3.27;3.27;;;13.60;99.90;;;;;;5102140;28;20477;-67
2023/08/05 04:12:14;;;;;;;3.10;3.10;;;13.60;99.90;;;;;;5085922;28;21839;-67
2023/08/05 04:14:43;;;;;;;2.90;2.90;;;13.60;99.90;;;;;;5097769;28;20478;-68
2023/08/05 04:17:12;;;;;;;3.10;3.10;;;13.60;99.90;;;;;;5106393;28;20511;-69
2023/08/05 04:19:42;;;;;;;2.80;2.80;;;13.50;99.90;;;;;;5089645;28;20466;-68
2023/08/05 04:22:09;;;;;;;3.13;3.13;;;13.40;99.90;;;;;;5092478;28;20464;-67
2023/08/05 04:24:36;;;;;;;2.93;2.93;;;13.40;99.90;;;;;;5107085;28;20453;-69
2023/08/05 04:27:03;;;;;;;3.37;3.37;;;13.40;99.90;;;;;;5099778;28;20543;-67
2023/08/05 04:29:31;;;;;;;3.40;3.40;;;13.40;99.90;;;;;;5091799;28;20511;-67
2023/08/05 04:31:59;;;;;;;2.87;2.87;;;13.50;99.90;;;;;;5099026;28;20458;-70
2023/08/05 04:34:26;;;;;;;3.30;3.30;;;13.50;99.90;;;;;;5098970;28;20967;-69
2023/08/05 04:36:56;;;;;;;3.50;3.50;;;13.50;99.90;;;;;;5105784;28;20872;-70
2023/08/05 04:39:24;;;;;;;3.20;3.20;;;13.50;99.90;;;;;;5097501;28;20476;-69
2023/08/05 04:41:51;;;;;;;3.93;3.93;;;13.50;99.90;;;;;;5089192;28;20971;-70
2023/08/05 04:44:18;;;;;;;3.50;3.50;;;13.60;99.90;;;;;;5105851;28;20465;-70
2023/08/05 04:46:47;;;;;;;3.80;3.80;;;13.60;99.90;;;;;;5096175;28;20480;-69
2023/08/05 04:49:14;;;;;;;4.00;4.00;;;13.70;99.90;;;;;;5094746;28;20456;-70
2023/08/05 04:51:40;;;;;;;3.90;3.90;;;13.80;99.90;;;;;;5102655;28;20777;-69
2023/08/05 04:54:10;;;;;;;3.50;3.50;;;13.80;99.90;;;;;;5098720;28;20462;-69
2023/08/05 04:56:38;;;;;;;3.90;3.90;;;13.80;99.90;;;;;;5103563;28;20480;-71
2023/08/05 04:59:06;;;;;;;4.13;4.13;;;13.80;99.90;;;;;;5088685;28;20454;-69
2023/08/05 05:01:33;;;;;;;3.80;3.80;;;13.80;99.90;;;;;;5095711;28;21000;-70
2023/08/05 05:04:01;;;;;;;3.73;3.73;;;13.90;99.90;;;;;;5099078;28;20485;-69
2023/08/05 05:06:28;;;;;;;3.17;3.17;;;13.90;99.90;;;;;;5091561;28;20474;-69
2023/08/05 05:08:55;;;;;;;2.60;2.60;;;13.90;99.90;;;;;;5089612;28;20454;-69
2023/08/05 05:11:24;;;;;;;2.80;2.80;;;13.80;99.90;;;;;;5085203;28;20478;-70
2023/08/05 05:13:52;;;;;;;3.27;3.27;;;13.80;99.90;;;;;;5084321;28;21253;-70
2023/08/05 05:16:20;;;;;;;4.03;4.03;;;13.70;99.90;;;;;;5097663;28;21025;-69
2023/08/05 05:18:47;;;;;;;3.73;3.73;;;13.80;99.90;;;;;;5089791;28;20481;-69
2023/08/05 05:21:15;;;;;;;3.40;3.40;;;13.80;99.90;;;;;;5096376;28;20457;-69
2023/08/05 05:23:44;;;;;;;3.80;3.80;;;13.80;99.90;;;;;;5089087;28;20469;-68
2023/08/05 05:26:11;;;;;;;3.23;3.23;;;14.00;99.90;;;;;;5096641;28;20446;-69
2023/08/05 05:28:40;;;;;;;3.30;3.30;;;14.00;99.90;;;;;;5101942;28;20813;-70
2023/08/05 05:31:07;;;;;;;2.97;2.97;;;14.00;99.90;;;;;;5087337;28;20540;-70
2023/08/05 05:33:34;;;;;;;3.10;3.10;;;14.10;99.90;;;;;;5087972;28;20458;-70
2023/08/05 05:36:01;;;;;;;3.30;3.30;;;14.10;99.90;;;;;;5103157;28;20488;-70
2023/08/05 05:38:28;;;;;;;3.03;3.03;;;14.20;99.90;;;;;;5100402;28;20472;-69
2023/08/05 05:40:56;;;;;;;2.60;2.60;;;14.30;99.90;;;;;;5096569;28;20449;-68
2023/08/05 05:43:23;;;;;;;3.10;3.10;;;14.30;99.90;;;;;;5086610;28;20465;-69
2023/08/05 05:45:56;;;;;;;3.17;3.17;;;14.50;99.90;;;;;;5099324;28;20461;-69
2023/08/05 05:48:23;;;;;;;3.33;3.33;;;14.60;99.90;;;;;;5102232;28;20553;-69
2023/08/05 05:50:52;;;;;;;3.40;3.40;;;14.60;99.90;;;;;;5089426;28;20473;-69
2023/08/05 05:53:19;;;;;;;2.73;2.73;;;14.70;99.90;;;;;;5097306;28;20519;-70
2023/08/05 05:55:50;;;;;;;2.67;2.67;;;14.70;99.90;;;;;;5096797;28;20466;-69
2023/08/05 05:58:17;;;;;;;2.67;2.67;;;14.70;99.90;;;;;;5099439;28;20461;-68
2023/08/05 06:00:45;;;;;;;2.70;2.70;;;14.70;99.90;;;;;;5107277;28;20793;-69
2023/08/05 06:03:15;;;;;;;2.97;2.97;;;14.80;99.90;;;;;;5112025;28;20471;-69
2023/08/05 06:05:42;;;;;;;2.70;2.70;;;14.80;99.90;;;;;;5088502;28;20477;-69
2023/08/05 06:08:10;;;;;;;2.67;2.67;;;14.80;99.90;;;;;;5094878;28;20485;-69
2023/08/05 06:10:38;;;;;;;2.33;2.33;;;14.80;99.90;;;;;;5095011;28;20952;-69
2023/08/05 06:13:06;;;;;;;2.77;2.77;;;14.80;99.90;;;;;;5096198;28;20458;-69
2023/08/05 06:15:33;;;;;;;2.50;2.50;;;14.90;99.90;;;;;;5098936;28;20972;-69
2023/08/05 06:17:59;;;;;;;2.37;2.37;;;15.00;99.90;;;;;;5095812;28;20496;-68
2023/08/05 06:20:28;;;;;;;3.10;3.10;;;15.10;99.90;;;;;;5098119;28;20486;-68
2023/08/05 06:22:55;;;;;;;2.30;2.30;;;15.30;99.90;;;;;;5091424;28;20458;-69
2023/08/05 06:25:22;;;;;;;2.30;2.30;;;15.30;99.90;;;;;;5097820;28;20465;-69
2023/08/05 06:27:51;;;;;;;2.50;2.50;;;15.40;99.90;;;;;;5096732;28;20972;-70
2023/08/05 06:30:18;;;;;;;2.43;2.43;;;15.40;99.90;;;;;;5090623;28;20718;-69
2023/08/05 06:32:46;;;;;;;2.10;2.10;;;15.40;99.90;;;;;;5095665;28;20458;-70
2023/08/05 06:35:13;;;;;;;2.67;2.67;;;15.50;99.90;;;;;;5094527;28;20490;-70
2023/08/05 06:37:42;;;;;;;2.80;2.80;;;15.60;99.90;;;;;;5104276;28;20876;-69
2023/08/05 06:40:10;;;;;;;2.60;2.60;;;15.80;99.90;;;;;;5108213;28;20518;-70
2023/08/05 06:42:37;;;;;;;2.83;2.83;;;15.90;99.90;;;;;;5101102;28;20474;-69
2023/08/05 06:45:05;;;;;;;3.60;3.60;;;16.10;99.90;;;;;;5101929;28;20461;-69
2023/08/05 06:47:31;;;;;;;2.87;2.87;;;16.20;99.90;;;;;;5098216;28;20453;-69
2023/08/05 06:49:59;;;;;;;3.10;3.10;;;16.30;99.90;;;;;;5099499;28;20470;-70
2023/08/05 06:52:25;;;;;;;3.40;3.40;;;16.50;99.90;;;;;;5089088;28;20901;-69
2023/08/05 06:54:55;;;;;;;4.10;4.10;;;16.70;99.90;;;;;;5090009;28;20461;-70
2023/08/05 06:57:22;;;;;;;4.50;4.50;;;16.80;99.90;;;;;;5096023;28;20538;-68
2023/08/05 06:59:49;;;;;;;4.70;4.70;;;16.80;99.90;;;;;;5098053;28;20469;-71
2023/08/05 07:02:17;;;;;;;6.17;6.07;;;17.20;99.90;;;;;;5098123;28;20450;-69
2023/08/05 07:04:46;;;;;;;6.57;6.47;;;17.40;99.90;;;;;;5096100;28;20466;-69
2023/08/05 07:07:13;;;;;;;7.40;7.30;;;17.70;99.90;;;;;;5092529;28;20478;-70
2023/08/05 07:09:40;;;;;;;8.00;7.90;;;18.10;99.90;;;;;;5093986;28;20457;-70
2023/08/05 07:12:09;;;;;;;8.50;8.40;;;18.30;99.90;;;;;;5085575;28;20465;-69
2023/08/05 07:14:36;;;;;;;8.30;8.20;;;18.60;99.90;;;;;;5089814;28;20542;-69
2023/08/05 07:17:03;;;;;;;8.30;8.20;;;18.80;99.90;;;;;;5094504;28;22048;-67
2023/08/05 07:19:30;;;;;;;9.30;9.10;;;18.90;99.90;;;;;;5086613;28;20462;-67
2023/08/05 07:21:57;;;;;;;8.87;8.77;;;18.90;99.90;;;;;;5086666;28;20489;-67
2023/08/05 07:24:23;;;;;;;9.97;9.77;;;19.10;99.90;;;;;;5093352;28;20456;-68
2023/08/05 07:26:51;;;;;;;10.30;10.10;;;19.40;99.90;;;;;;5092679;28;20462;-69
2023/08/05 07:29:19;;;;;;;10.30;10.10;;;19.60;99.90;;;;;;5092201;28;20486;-69
2023/08/05 07:31:46;;;;;;;10.53;10.33;;;19.60;99.90;;;;;;5104395;28;20454;-66
2023/08/05 07:34:15;;;;;;;10.37;10.17;;;19.80;99.90;;;;;;5101231;27;20462;-68
2023/08/05 07:36:43;;;;;;;11.07;10.77;;;19.90;99.90;;;;;;5099525;28;20482;-66
2023/08/05 07:39:11;;;;;;;10.90;10.60;;;20.10;99.90;;;;;;5097371;28;20505;-67
2023/08/05 07:41:38;;;;;;;11.50;11.20;;;20.50;99.90;;;;;;5098301;28;20889;-68
2023/08/05 07:44:07;;;;;;;11.47;11.17;;;20.60;99.90;;;;;;5101948;28;20971;-69
2023/08/05 07:46:37;;;;;;;11.60;11.30;;;20.70;99.90;;;;;;5102230;28;20453;-69
2023/08/05 07:49:07;;;;;;;11.67;11.37;;;20.80;99.90;;;;;;5109734;28;20471;-69
2023/08/05 07:51:33;;;;;;;11.80;11.50;;;20.90;99.90;;;;;;5095610;28;20470;-69
2023/08/05 07:54:00;;;;;;;11.70;11.40;;;21.10;99.90;;;;;;5098311;28;20965;-68
2023/08/05 07:56:27;;;;;;;12.10;11.80;;;21.10;99.90;;;;;;5096977;28;20457;-68
2023/08/05 07:58:54;;;;;;;12.07;11.77;;;21.00;99.90;;;;;;5103049;28;20458;-71
2023/08/05 08:01:23;;;;;;;11.87;11.57;;;20.90;99.90;;;;;;5097861;28;20469;-68
2023/08/05 08:03:53;;;;;;;11.63;11.33;;;20.90;99.90;;;;;;5104605;28;20461;-68
2023/08/05 08:06:21;;;;;;;11.60;11.30;;;21.20;99.90;;;;;;5094698;28;20507;-71
2023/08/05 08:08:48;;;;;;;12.27;11.97;;;21.60;99.90;;;;;;5091668;28;20500;-66
2023/08/05 08:11:15;;;;;;;12.30;12.00;;;22.00;99.90;;;;;;5094521;27;20468;-67
2023/08/05 08:13:43;;;;;;;12.13;11.83;;;22.10;99.90;;;;;;5101091;28;20457;-68
2023/08/05 08:16:10;;;;;;;12.20;11.90;;;22.20;99.90;;;;;;5096711;28;20513;-69
2023/08/05 08:18:37;;;;;;;12.10;11.80;;;22.30;99.90;;;;;;5092362;28;20824;-68
2023/08/05 08:21:07;;;;;;;12.30;12.00;;;22.50;99.90;;;;;;5098023;28;20454;-67
2023/08/05 08:23:34;;;;;;;12.00;11.70;;;22.40;99.90;;;;;;5087554;28;20458;-70
2023/08/05 08:26:01;;;;;;;12.13;11.83;;;22.50;99.90;;;;;;5090509;28;20511;-69
2023/08/05 08:28:27;;;;;;;12.97;12.57;;;22.70;99.90;;;;;;5094099;28;20458;-69
2023/08/05 08:30:55;;;;;;;12.73;12.33;;;22.90;99.90;;;;;;5093353;28;20465;-69
2023/08/05 08:33:22;;;;;;;12.83;12.43;;;23.30;99.90;;;;;;5087758;28;20470;-70
2023/08/05 08:35:50;;;;;;;13.00;12.60;;;23.50;99.90;;;;;;5088715;28;20466;-69
2023/08/05 08:38:18;;;;;;;13.00;12.60;;;23.80;99.90;;;;;;5089915;28;20485;-70
2023/08/05 08:40:48;;;;;;;13.27;12.87;;;24.00;99.90;;;;;;5091809;28;20569;-69
2023/08/05 08:43:17;;;;;;;12.77;12.37;;;24.30;99.90;;;;;;5090841;28;20511;-69
2023/08/05 08:45:45;;;;;;;13.37;12.97;;;24.40;99.90;;;;;;5094258;28;20470;-69
2023/08/05 08:48:13;;;;;;;12.90;12.50;;;24.70;99.90;;;;;;5097193;28;20454;-69
2023/08/05 08:50:42;;;;;;;13.77;13.37;;;24.50;99.90;;;;;;5098749;28;20901;-71
2023/08/05 08:53:09;;;;;;;13.23;12.83;;;24.90;99.90;;;;;;5093486;28;20461;-71
2023/08/05 08:55:38;;;;;;;13.60;13.20;;;24.50;99.90;;;;;;5093140;28;20493;-68
2023/08/05 08:58:04;;;;;;;13.37;12.97;;;23.90;99.90;;;;;;5089223;28;20482;-71
2023/08/05 09:00:32;;;;;;;13.67;13.27;;;24.10;99.90;;;;;;5105419;28;20888;-70
2023/08/05 09:03:01;;;;;;;13.40;13.00;;;23.80;99.90;;;;;;5090154;28;20965;-69
2023/08/05 09:05:31;;;;;;;12.87;12.47;;;23.60;99.90;;;;;;5098140;28;20864;-68
2023/08/05 09:08:01;;;;;;;13.07;12.67;;;23.50;99.90;;;;;;5090102;28;20501;-68
2023/08/05 09:10:28;;;;;;;13.60;13.20;;;23.80;99.90;;;;;;5086436;28;20458;-67
2023/08/05 09:12:57;;;;;;;13.33;12.93;;;24.00;99.90;;;;;;5094195;28;20458;-69
2023/08/05 09:15:33;;;;;;;13.37;12.97;;;24.20;99.90;;;;;;5090988;28;20484;-69
2023/08/05 09:18:03;;;;;;;13.10;12.70;;;24.10;99.90;;;;;;5090878;28;21009;-69
2023/08/05 09:20:32;;;;;;;13.63;13.23;;;24.50;99.90;;;;;;5094979;28;20464;-68
2023/08/05 09:23:02;;;;;;;13.07;12.67;;;24.40;99.90;;;;;;5091103;28;20853;-69
2023/08/05 09:25:30;;;;;;;13.20;12.80;;;24.40;99.90;;;;;;5093662;28;20498;-70
2023/08/05 09:28:01;;;;;;;13.53;13.13;;;25.10;99.90;;;;;;5101923;28;20530;-67
2023/08/05 09:30:28;;;;;;;13.80;13.40;;;25.90;99.90;;;;;;5105416;28;20461;-68
2023/08/05 09:32:55;;;;;;;14.30;13.80;;;26.50;99.90;;;;;;5112169;28;20461;-68
2023/08/05 09:35:23;;;;;;;13.80;13.40;;;27.00;99.90;;;;;;5093603;28;21101;-69
2023/08/05 09:37:52;;;;;;;14.37;13.87;;;26.50;99.90;;;;;;5092313;28;20505;-70
2023/08/05 09:40:21;;;;;;;14.50;14.00;;;26.30;99.90;;;;;;5092068;28;20515;-67
2023/08/05 09:42:50;;;;;;;14.77;14.27;;;25.90;99.90;;;;;;5104089;28;20471;-67
2023/08/05 09:45:20;;;;;;;13.53;13.13;;;25.40;99.90;;;;;;5095027;28;20956;-69
2023/08/05 09:47:49;;;;;;;13.80;13.40;;;25.30;99.90;;;;;;5104194;28;20450;-69
2023/08/05 09:50:18;;;;;;;13.73;13.33;;;26.00;99.90;;;;;;5100934;28;20837;-68
2023/08/05 09:52:49;;;;;;;13.90;13.50;;;26.60;99.90;;;;;;5101009;28;20461;-68
2023/08/05 09:55:17;;;;;;;13.97;13.57;;;27.60;99.90;;;;;;5106715;28;21056;-67
2023/08/05 09:57:45;;;;;;;13.90;13.50;;;28.20;99.90;;;;;;5100673;28;20504;-67
2023/08/05 10:00:14;;;;;;;15.00;14.50;;;28.70;99.90;;;;;;5104713;28;20457;-68
2023/08/05 10:02:44;;;;;;;13.53;13.13;;;28.70;99.90;;;;;;5096406;28;20461;-69
2023/08/05 10:05:13;;;;;;;14.23;13.83;;;28.20;99.90;;;;;;5100992;28;20457;-67
2023/08/05 10:07:41;;;;;;;15.13;14.63;;;28.00;99.90;;;;;;5093488;28;20854;-67
2023/08/05 10:10:09;;;;;;;15.03;14.53;;;27.20;99.90;;;;;;5098379;28;20458;-68
2023/08/05 10:12:41;;;;;;;15.30;14.80;;;27.00;99.90;;;;;;5102143;28;20460;-69
2023/08/05 10:15:11;;;;;;;14.73;14.23;;;27.00;99.90;;;;;;5091943;28;20466;-68
2023/08/05 10:17:39;;;;;;;15.03;14.53;;;27.20;99.90;;;;;;5096053;28;20772;-69
2023/08/05 10:20:12;;;;;;;15.20;14.70;;;27.50;99.90;;;;;;5090816;28;20577;-68
2023/08/05 10:22:40;;;;;;;14.83;14.33;;;27.20;99.90;;;;;;5090581;28;20454;-68
2023/08/05 10:25:07;;;;;;;14.10;13.70;;;26.60;99.90;;;;;;5094346;28;20465;-69
2023/08/05 10:27:40;;;;;;;14.70;14.20;;;26.20;99.90;;;;;;5090910;28;20476;-68
2023/08/05 10:30:09;;;;;;;14.17;13.77;;;26.10;99.90;;;;;;5098763;28;20515;-67
2023/08/05 10:32:36;;;;;;;14.83;14.33;;;26.50;99.90;;;;;;5103199;28;20453;-68
2023/08/05 10:35:26;;;;;;;13.83;13.43;;;26.60;99.90;;;;;;5089954;28;20919;-68
2023/08/05 10:38:05;;;;;;;14.00;13.60;;;26.30;99.90;;;;;;5096121;28;20488;-69
2023/08/05 10:40:46;;;;;;;14.83;14.33;;;26.40;99.90;;;;;;5101166;28;20476;-69
2023/08/05 10:43:27;;;;;;;15.00;14.50;;;26.80;99.90;;;;;;5104646;28;20665;-68
2023/08/05 10:45:55;;;;;;;15.30;14.80;;;26.10;99.90;;;;;;5095632;28;20549;-69
2023/08/05 10:48:29;;;;;;;14.50;14.00;;;25.50;99.90;;;;;;5087328;28;20798;-68
2023/08/05 10:50:57;;;;;;;14.47;13.97;;;25.30;99.90;;;;;;5098832;28;20454;-68
2023/08/05 10:53:24;;;;;;;14.90;14.40;;;25.20;99.90;;;;;;5100806;28;20461;-70
2023/08/05 10:55:56;;;;;;;14.50;14.00;;;24.90;99.90;;;;;;5098295;28;20470;-69
2023/08/05 10:58:25;;;;;;;14.83;14.33;;;24.80;99.90;;;;;;5101140;28;21002;-71
2023/08/05 11:00:59;;;;;;;14.73;14.23;;;25.30;99.90;;;;;;5088375;28;21020;-70
2023/08/05 11:03:42;;;;;;;14.97;14.47;;;25.60;99.90;;;;;;5089261;28;20865;-71
2023/08/05 11:06:12;;;;;;;14.37;13.97;;;25.80;99.90;;;;;;5097702;28;20992;-70
2023/08/05 11:08:40;;;;;;;14.80;14.30;;;26.00;99.90;;;;;;5098390;27;20458;-71
2023/08/05 11:11:08;;;;;;;14.30;13.90;;;26.40;99.90;;;;;;5101101;27;20895;-70
2023/08/05 11:13:37;;;;;;;14.60;14.10;;;26.50;99.90;;;;;;5100177;28;20459;-71
2023/08/05 11:16:09;;;;;;;14.40;13.97;;;26.60;99.90;;;;;;5087385;28;20493;-71
2023/08/05 11:18:37;;;;;;;14.30;13.90;;;26.40;99.90;;;;;;5099462;28;20823;-69
2023/08/05 11:21:06;;;;;;;15.17;14.67;;;26.40;99.90;;;;;;5084557;28;20931;-70
2023/08/05 11:23:37;;;;;;;15.00;14.50;;;27.10;99.90;;;;;;5094989;28;20465;-71
2023/08/05 11:26:05;;;;;;;15.43;14.93;;;27.10;99.90;;;;;;5092905;28;20504;-71
2023/08/05 11:28:33;;;;;;;14.20;13.80;;;26.70;99.90;;;;;;5094950;28;20517;-70
2023/08/05 11:31:01;;;;;;;14.90;14.40;;;26.40;99.90;;;;;;5092386;28;20458;-69
2023/08/05 11:33:28;;;;;;;13.80;13.40;;;26.00;99.90;;;;;;5089571;28;20485;-70
2023/08/05 11:35:55;;;;;;;13.70;13.30;;;25.90;99.90;;;;;;5091635;28;20465;-70
2023/08/05 11:38:24;;;;;;;14.10;13.70;;;26.40;99.90;;;;;;5094977;28;20505;-71
2023/08/05 11:40:55;;;;;;;15.30;14.80;;;26.90;99.90;;;;;;5091847;28;20460;-70
2023/08/05 11:43:23;;;;;;;14.73;14.23;;;27.40;99.90;;;;;;5092582;28;20458;-71
2023/08/05 11:45:50;;;;;;;14.80;14.30;;;27.30;99.90;;;;;;5094705;28;20453;-70
2023/08/05 11:48:22;;;;;;;14.90;14.40;;;26.80;99.90;;;;;;5092251;28;20552;-69
2023/08/05 11:50:50;;;;;;;14.70;14.20;;;26.50;99.90;;;;;;5089700;28;20460;-69
2023/08/05 11:53:17;;;;;;;14.80;14.30;;;26.50;99.90;;;;;;5091670;28;20731;-70
2023/08/05 11:55:46;;;;;;;14.70;14.20;;;26.10;99.90;;;;;;5089035;28;21324;-70
2023/08/05 11:58:14;;;;;;;14.10;13.70;;;25.90;99.90;;;;;;5088045;28;20478;-70
2023/08/05 12:00:46;;;;;;;18.80;17.90;;;24.90;99.90;;;;;;5094190;28;20445;-67
2023/08/05 12:03:16;;;;;;;16.93;16.17;;;22.80;99.90;;;;;;5100301;28;20746;-69
2023/08/05 12:05:44;;;;;;;16.03;15.33;;;21.00;99.90;;;;;;5087251;28;20450;-70
2023/08/05 12:08:11;;;;;;;13.33;12.93;;;20.30;99.90;;;;;;5093275;28;20844;-70
2023/08/05 12:10:41;;;;;;;11.30;11.00;;;20.20;99.90;;;;;;5093189;28;20465;-69
2023/08/05 12:13:10;;;;;;;11.57;11.27;;;20.50;99.90;;;;;;5093385;28;20481;-69
2023/08/05 12:15:41;;;;;;;11.80;11.50;;;21.10;99.90;;;;;;5100279;28;20493;-69
2023/08/05 12:18:10;;;;;;;12.07;11.77;;;21.60;99.90;;;;;;5091421;28;20845;-69
2023/08/05 12:20:47;;;;;;;12.17;11.87;;;21.90;99.90;;;;;;5090096;28;20797;-68
2023/08/05 12:23:19;;;;;;;12.23;11.93;;;22.10;99.90;;;;;;5090608;28;20463;-68
2023/08/05 12:25:49;;;;;;;12.10;11.80;;;22.30;99.90;;;;;;5093671;28;20976;-71
2023/08/05 12:28:18;;;;;;;12.43;12.10;;;22.60;99.90;;;;;;5088376;28;20473;-70
2023/08/05 12:30:51;;;;;;;12.70;12.30;;;22.70;99.90;;;;;;5095813;28;21040;-68
2023/08/05 12:33:18;;;;;;;12.67;12.27;;;22.50;99.90;;;;;;5091525;28;20895;-68
2023/08/05 12:35:48;;;;;;;12.70;12.30;;;22.80;99.90;;;;;;5091226;28;20956;-70
2023/08/05 12:38:15;;;;;;;13.10;12.70;;;22.70;99.90;;;;;;5094987;28;20473;-70
2023/08/05 12:40:42;;;;;;;12.90;12.50;;;22.70;99.90;;;;;;5093700;28;20489;-71
2023/08/05 12:43:15;;;;;;;12.80;12.40;;;22.60;99.90;;;;;;5101187;28;20550;-68